sensor_id;sensor_type;location;lat;lon;timestamp;pressure;altitude;pressure_sealevel;temperature;humidity
56042;BME280;48756;41.374;2.066;2022-07-05T00:02:02;101099.63;;;25.98;50.14
56042;BME280;48756;41.374;2.066;2022-07-05T00:04:28;101099.22;;;25.91;50.21
56042;BME280;48756;41.374;2.066;2022-07-05T00:06:53;101092.97;;;25.78;51.03
56042;BME280;48756;41.374;2.066;2022-07-05T00:09:37;101104.66;;;26.02;50.33
56042;BME280;48756;41.374;2.066;2022-07-05T00:12:02;101103.47;;;25.93;50.66
56042;BME280;48756;41.374;2.066;2022-07-05T00:14:28;101107.31;;;25.89;51.12
56042;BME280;48756;41.374;2.066;2022-07-05T00:16:53;101106.03;;;25.95;50.98
56042;BME280;48756;41.374;2.066;2022-07-05T00:19:18;101105.38;;;25.79;51.06
56042;BME280;48756;41.374;2.066;2022-07-05T00:21:44;101102.91;;;25.76;50.94
56042;BME280;48756;41.374;2.066;2022-07-05T00:24:09;101107.75;;;25.83;51.60
56042;BME280;48756;41.374;2.066;2022-07-05T00:26:35;101101.84;;;25.78;51.54
56042;BME280;48756;41.374;2.066;2022-07-05T00:29:00;101100.50;;;25.85;53.10
56042;BME280;48756;41.374;2.066;2022-07-05T00:31:25;101093.41;;;25.72;52.65
56042;BME280;48756;41.374;2.066;2022-07-05T00:33:50;101097.28;;;25.80;52.40
56042;BME280;48756;41.374;2.066;2022-07-05T00:36:16;101097.03;;;25.71;53.52
56042;BME280;48756;41.374;2.066;2022-07-05T00:38:41;101098.53;;;25.75;53.50
56042;BME280;48756;41.374;2.066;2022-07-05T00:41:06;101098.53;;;25.75;52.94
56042;BME280;48756;41.374;2.066;2022-07-05T00:43:32;101098.22;;;25.79;53.18
56042;BME280;48756;41.374;2.066;2022-07-05T00:45:57;101094.41;;;25.83;52.45
56042;BME280;48756;41.374;2.066;2022-07-05T00:48:23;101091.31;;;25.89;53.03
56042;BME280;48756;41.374;2.066;2022-07-05T00:50:48;101093.78;;;25.65;53.70
56042;BME280;48756;41.374;2.066;2022-07-05T00:53:15;101104.78;;;25.61;54.51
56042;BME280;48756;41.374;2.066;2022-07-05T00:55:40;101097.22;;;25.68;55.18
56042;BME280;48756;41.374;2.066;2022-07-05T00:58:07;101099.91;;;25.68;53.72
56042;BME280;48756;41.374;2.066;2022-07-05T01:00:33;101102.59;;;25.53;54.77
56042;BME280;48756;41.374;2.066;2022-07-05T01:02:58;101100.97;;;25.51;54.94
56042;BME280;48756;41.374;2.066;2022-07-05T01:05:23;101103.66;;;25.51;54.89
56042;BME280;48756;41.374;2.066;2022-07-05T01:07:49;101103.00;;;25.47;55.10
56042;BME280;48756;41.374;2.066;2022-07-05T01:10:14;101114.97;;;25.54;54.82
56042;BME280;48756;41.374;2.066;2022-07-05T01:12:40;101103.22;;;25.57;54.17
56042;BME280;48756;41.374;2.066;2022-07-05T01:15:06;101113.47;;;25.50;55.21
56042;BME280;48756;41.374;2.066;2022-07-05T01:17:32;101110.59;;;25.53;54.53
56042;BME280;48756;41.374;2.066;2022-07-05T01:19:58;101109.72;;;25.67;53.94
56042;BME280;48756;41.374;2.066;2022-07-05T01:22:24;101107.06;;;25.67;54.69
56042;BME280;48756;41.374;2.066;2022-07-05T01:24:51;101106.38;;;25.63;55.50
56042;BME280;48756;41.374;2.066;2022-07-05T01:27:18;101106.63;;;25.46;55.20
56042;BME280;48756;41.374;2.066;2022-07-05T01:29:44;101119.97;;;25.46;55.10
56042;BME280;48756;41.374;2.066;2022-07-05T01:32:09;101123.50;;;25.47;54.18
56042;BME280;48756;41.374;2.066;2022-07-05T01:34:38;101133.75;;;25.53;54.01
56042;BME280;48756;41.374;2.066;2022-07-05T01:37:04;101148.91;;;25.52;55.27
56042;BME280;48756;41.374;2.066;2022-07-05T01:39:30;101144.53;;;25.51;54.25
56042;BME280;48756;41.374;2.066;2022-07-05T01:41:55;101140.03;;;25.52;54.34
56042;BME280;48756;41.374;2.066;2022-07-05T01:44:21;101138.13;;;25.54;54.71
56042;BME280;48756;41.374;2.066;2022-07-05T01:46:46;101128.28;;;25.42;55.69
56042;BME280;48756;41.374;2.066;2022-07-05T01:49:15;101130.63;;;25.19;56.27
56042;BME280;48756;41.374;2.066;2022-07-05T01:51:48;101125.94;;;25.23;56.58
56042;BME280;48756;41.374;2.066;2022-07-05T01:54:14;101127.53;;;25.25;56.46
56042;BME280;48756;41.374;2.066;2022-07-05T01:56:39;101127.19;;;24.89;57.74
56042;BME280;48756;41.374;2.066;2022-07-05T01:59:05;101134.72;;;24.96;57.86
56042;BME280;48756;41.374;2.066;2022-07-05T02:01:34;101143.88;;;24.92;58.10
56042;BME280;48756;41.374;2.066;2022-07-05T02:04:00;101149.28;;;25.05;57.77
56042;BME280;48756;41.374;2.066;2022-07-05T02:06:26;101145.88;;;25.17;56.68
56042;BME280;48756;41.374;2.066;2022-07-05T02:08:51;101141.28;;;25.19;56.66
56042;BME280;48756;41.374;2.066;2022-07-05T02:11:16;101139.03;;;25.13;57.17
56042;BME280;48756;41.374;2.066;2022-07-05T02:13:41;101132.34;;;25.06;57.18
56042;BME280;48756;41.374;2.066;2022-07-05T02:16:07;101138.25;;;24.68;58.76
56042;BME280;48756;41.374;2.066;2022-07-05T02:18:32;101131.69;;;24.74;58.37
56042;BME280;48756;41.374;2.066;2022-07-05T02:20:57;101145.97;;;24.73;58.92
56042;BME280;48756;41.374;2.066;2022-07-05T02:23:23;101143.28;;;24.87;58.75
56042;BME280;48756;41.374;2.066;2022-07-05T02:25:48;101149.69;;;24.70;59.20
56042;BME280;48756;41.374;2.066;2022-07-05T02:28:13;101150.78;;;24.66;59.16
56042;BME280;48756;41.374;2.066;2022-07-05T02:30:39;101148.13;;;24.66;59.30
56042;BME280;48756;41.374;2.066;2022-07-05T02:33:04;101151.94;;;24.62;59.75
56042;BME280;48756;41.374;2.066;2022-07-05T02:35:29;101150.25;;;24.76;59.48
56042;BME280;48756;41.374;2.066;2022-07-05T02:37:55;101148.25;;;24.93;58.73
56042;BME280;48756;41.374;2.066;2022-07-05T02:40:20;101144.53;;;24.96;58.66
56042;BME280;48756;41.374;2.066;2022-07-05T02:42:45;101150.16;;;24.91;59.26
56042;BME280;48756;41.374;2.066;2022-07-05T02:45:11;101151.47;;;24.84;59.37
56042;BME280;48756;41.374;2.066;2022-07-05T02:47:36;101155.03;;;24.99;59.47
56042;BME280;48756;41.374;2.066;2022-07-05T02:50:05;101143.22;;;25.03;59.36
56042;BME280;48756;41.374;2.066;2022-07-05T02:52:31;101134.25;;;25.04;59.27
56042;BME280;48756;41.374;2.066;2022-07-05T02:54:57;101142.53;;;24.99;59.44
56042;BME280;48756;41.374;2.066;2022-07-05T02:57:22;101151.31;;;25.01;59.46
56042;BME280;48756;41.374;2.066;2022-07-05T02:59:47;101154.34;;;25.10;59.63
56042;BME280;48756;41.374;2.066;2022-07-05T03:02:12;101131.88;;;25.14;59.73
56042;BME280;48756;41.374;2.066;2022-07-05T03:04:38;101135.50;;;25.13;59.73
56042;BME280;48756;41.374;2.066;2022-07-05T03:07:03;101128.34;;;25.13;59.02
56042;BME280;48756;41.374;2.066;2022-07-05T03:09:28;101129.22;;;25.14;59.48
56042;BME280;48756;41.374;2.066;2022-07-05T03:11:54;101135.66;;;25.10;59.43
56042;BME280;48756;41.374;2.066;2022-07-05T03:14:19;101131.38;;;25.07;59.67
56042;BME280;48756;41.374;2.066;2022-07-05T03:16:45;101133.69;;;24.99;59.54
56042;BME280;48756;41.374;2.066;2022-07-05T03:19:10;101130.44;;;24.94;58.89
56042;BME280;48756;41.374;2.066;2022-07-05T03:21:35;101135.88;;;24.78;59.11
56042;BME280;48756;41.374;2.066;2022-07-05T03:24:01;101140.91;;;24.68;59.83
56042;BME280;48756;41.374;2.066;2022-07-05T03:26:26;101142.03;;;24.79;59.29
56042;BME280;48756;41.374;2.066;2022-07-05T03:28:51;101145.56;;;24.79;59.02
56042;BME280;48756;41.374;2.066;2022-07-05T03:31:17;101151.00;;;24.78;59.29
56042;BME280;48756;41.374;2.066;2022-07-05T03:33:42;101159.97;;;24.91;59.07
56042;BME280;48756;41.374;2.066;2022-07-05T03:36:08;101165.41;;;25.03;58.51
56042;BME280;48756;41.374;2.066;2022-07-05T03:38:33;101155.75;;;24.87;58.93
56042;BME280;48756;41.374;2.066;2022-07-05T03:40:58;101161.38;;;24.68;58.69
56042;BME280;48756;41.374;2.066;2022-07-05T03:43:24;101164.22;;;24.51;59.30
56042;BME280;48756;41.374;2.066;2022-07-05T03:45:49;101167.91;;;24.18;60.50
56042;BME280;48756;41.374;2.066;2022-07-05T03:48:14;101170.00;;;24.13;60.52
56042;BME280;48756;41.374;2.066;2022-07-05T03:50:40;101166.94;;;24.19;59.99
56042;BME280;48756;41.374;2.066;2022-07-05T03:53:05;101171.59;;;24.31;59.03
56042;BME280;48756;41.374;2.066;2022-07-05T03:55:30;101168.38;;;24.10;59.61
56042;BME280;48756;41.374;2.066;2022-07-05T03:57:55;101179.13;;;23.93;60.34
56042;BME280;48756;41.374;2.066;2022-07-05T04:00:21;101182.31;;;24.00;60.31
56042;BME280;48756;41.374;2.066;2022-07-05T04:02:46;101173.38;;;24.01;59.96
56042;BME280;48756;41.374;2.066;2022-07-05T04:05:11;101166.09;;;24.19;58.96
56042;BME280;48756;41.374;2.066;2022-07-05T04:07:50;101167.59;;;24.08;58.97
56042;BME280;48756;41.374;2.066;2022-07-05T04:10:15;101178.44;;;24.05;58.99
56042;BME280;48756;41.374;2.066;2022-07-05T04:12:41;101185.38;;;24.08;59.55
56042;BME280;48756;41.374;2.066;2022-07-05T04:15:06;101189.66;;;24.10;59.34
56042;BME280;48756;41.374;2.066;2022-07-05T04:17:32;101186.00;;;24.27;58.82
56042;BME280;48756;41.374;2.066;2022-07-05T04:19:57;101202.34;;;24.21;59.10
56042;BME280;48756;41.374;2.066;2022-07-05T04:22:22;101200.91;;;24.16;59.33
56042;BME280;48756;41.374;2.066;2022-07-05T04:24:48;101192.53;;;24.37;58.19
56042;BME280;48756;41.374;2.066;2022-07-05T04:27:31;101203.84;;;24.11;58.83
56042;BME280;48756;41.374;2.066;2022-07-05T04:29:57;101216.63;;;24.50;57.49
56042;BME280;48756;41.374;2.066;2022-07-05T04:32:22;101225.25;;;24.69;57.90
56042;BME280;48756;41.374;2.066;2022-07-05T04:34:47;101222.94;;;24.63;57.80
56042;BME280;48756;41.374;2.066;2022-07-05T04:37:12;101228.75;;;24.70;58.45
56042;BME280;48756;41.374;2.066;2022-07-05T04:39:38;101229.22;;;24.62;59.01
56042;BME280;48756;41.374;2.066;2022-07-05T04:42:03;101212.31;;;24.78;58.57
56042;BME280;48756;41.374;2.066;2022-07-05T04:44:29;101211.63;;;24.74;58.08
56042;BME280;48756;41.374;2.066;2022-07-05T04:46:54;101230.38;;;24.72;57.03
56042;BME280;48756;41.374;2.066;2022-07-05T04:49:19;101239.63;;;24.37;58.86
56042;BME280;48756;41.374;2.066;2022-07-05T04:51:45;101236.53;;;24.45;59.93
56042;BME280;48756;41.374;2.066;2022-07-05T04:54:10;101238.03;;;24.49;58.89
56042;BME280;48756;41.374;2.066;2022-07-05T04:56:35;101235.09;;;24.53;59.33
56042;BME280;48756;41.374;2.066;2022-07-05T04:59:01;101233.56;;;24.49;59.23
56042;BME280;48756;41.374;2.066;2022-07-05T05:01:26;101240.00;;;24.75;58.31
56042;BME280;48756;41.374;2.066;2022-07-05T05:03:51;101249.44;;;24.81;58.76
56042;BME280;48756;41.374;2.066;2022-07-05T05:06:16;101247.63;;;24.95;58.53
56042;BME280;48756;41.374;2.066;2022-07-05T05:08:42;101242.22;;;25.11;59.09
56042;BME280;48756;41.374;2.066;2022-07-05T05:11:07;101236.63;;;25.16;57.40
56042;BME280;48756;41.374;2.066;2022-07-05T05:13:33;101247.94;;;24.91;58.60
56042;BME280;48756;41.374;2.066;2022-07-05T05:15:58;101263.31;;;24.86;58.96
56042;BME280;48756;41.374;2.066;2022-07-05T05:18:23;101289.53;;;24.93;59.57
56042;BME280;48756;41.374;2.066;2022-07-05T05:20:52;101303.47;;;24.68;59.93
56042;BME280;48756;41.374;2.066;2022-07-05T05:23:17;101287.25;;;24.57;61.34
56042;BME280;48756;41.374;2.066;2022-07-05T05:25:43;101275.34;;;24.49;63.64
56042;BME280;48756;41.374;2.066;2022-07-05T05:28:08;101286.03;;;24.63;63.74
56042;BME280;48756;41.374;2.066;2022-07-05T05:30:33;101308.25;;;24.16;66.94
56042;BME280;48756;41.374;2.066;2022-07-05T05:32:59;101287.59;;;23.90;67.32
56042;BME280;48756;41.374;2.066;2022-07-05T05:35:24;101248.72;;;24.17;66.63
56042;BME280;48756;41.374;2.066;2022-07-05T05:37:53;101231.38;;;24.26;67.86
56042;BME280;48756;41.374;2.066;2022-07-05T05:40:19;101205.25;;;24.02;69.86
56042;BME280;48756;41.374;2.066;2022-07-05T05:42:45;101223.44;;;23.94;72.00
56042;BME280;48756;41.374;2.066;2022-07-05T05:45:10;101271.25;;;23.96;70.58
56042;BME280;48756;41.374;2.066;2022-07-05T05:47:57;101268.84;;;23.75;72.08
56042;BME280;48756;41.374;2.066;2022-07-05T05:50:28;101265.88;;;23.81;72.72
56042;BME280;48756;41.374;2.066;2022-07-05T05:52:54;101259.16;;;23.90;72.62
56042;BME280;48756;41.374;2.066;2022-07-05T05:55:20;101246.25;;;23.98;73.52
56042;BME280;48756;41.374;2.066;2022-07-05T05:57:45;101233.81;;;24.30;72.20
56042;BME280;48756;41.374;2.066;2022-07-05T06:00:11;101226.56;;;24.32;72.38
56042;BME280;48756;41.374;2.066;2022-07-05T06:02:37;101232.75;;;24.17;71.41
56042;BME280;48756;41.374;2.066;2022-07-05T06:05:03;101239.56;;;24.23;73.28
56042;BME280;48756;41.374;2.066;2022-07-05T06:07:28;101233.72;;;24.16;73.62
56042;BME280;48756;41.374;2.066;2022-07-05T06:09:53;101219.16;;;24.37;71.60
56042;BME280;48756;41.374;2.066;2022-07-05T06:12:18;101210.66;;;24.61;69.92
56042;BME280;48756;41.374;2.066;2022-07-05T06:14:44;101208.13;;;24.73;69.87
56042;BME280;48756;41.374;2.066;2022-07-05T06:17:09;101205.63;;;24.70;69.31
56042;BME280;48756;41.374;2.066;2022-07-05T06:19:34;101207.22;;;24.59;70.95
56042;BME280;48756;41.374;2.066;2022-07-05T06:22:00;101209.44;;;24.81;69.20
56042;BME280;48756;41.374;2.066;2022-07-05T06:24:25;101215.44;;;24.70;69.79
56042;BME280;48756;41.374;2.066;2022-07-05T06:26:50;101212.97;;;24.95;70.95
56042;BME280;48756;41.374;2.066;2022-07-05T06:29:16;101212.63;;;25.16;69.13
56042;BME280;48756;41.374;2.066;2022-07-05T06:31:41;101219.00;;;25.27;67.89
56042;BME280;48756;41.374;2.066;2022-07-05T06:34:07;101221.53;;;25.57;67.01
56042;BME280;48756;41.374;2.066;2022-07-05T06:36:32;101224.22;;;25.29;67.17
56042;BME280;48756;41.374;2.066;2022-07-05T06:38:57;101222.06;;;25.36;65.98
56042;BME280;48756;41.374;2.066;2022-07-05T06:41:23;101218.88;;;25.43;65.63
56042;BME280;48756;41.374;2.066;2022-07-05T06:43:48;101225.31;;;25.82;64.88
56042;BME280;48756;41.374;2.066;2022-07-05T06:46:13;101236.22;;;26.18;62.89
56042;BME280;48756;41.374;2.066;2022-07-05T06:48:39;101239.75;;;26.19;60.24
56042;BME280;48756;41.374;2.066;2022-07-05T06:51:04;101245.66;;;26.51;60.54
56042;BME280;48756;41.374;2.066;2022-07-05T06:53:29;101232.34;;;26.37;57.85
56042;BME280;48756;41.374;2.066;2022-07-05T06:55:55;101218.81;;;26.52;58.99
56042;BME280;48756;41.374;2.066;2022-07-05T06:58:20;101211.66;;;26.53;56.88
56042;BME280;48756;41.374;2.066;2022-07-05T07:00:45;101199.16;;;26.79;55.73
56042;BME280;48756;41.374;2.066;2022-07-05T07:03:11;101192.94;;;27.17;54.71
56042;BME280;48756;41.374;2.066;2022-07-05T07:05:36;101194.03;;;27.01;56.03
56042;BME280;48756;41.374;2.066;2022-07-05T07:08:02;101203.75;;;27.02;55.46
56042;BME280;48756;41.374;2.066;2022-07-05T07:10:46;101197.13;;;26.95;55.13
56042;BME280;48756;41.374;2.066;2022-07-05T07:13:11;101208.31;;;26.88;55.71
56042;BME280;48756;41.374;2.066;2022-07-05T07:15:36;101212.72;;;27.14;54.52
56042;BME280;48756;41.374;2.066;2022-07-05T07:18:03;101212.13;;;27.47;54.38
56042;BME280;48756;41.374;2.066;2022-07-05T07:20:28;101220.44;;;27.55;54.14
56042;BME280;48756;41.374;2.066;2022-07-05T07:22:53;101209.63;;;27.69;52.60
56042;BME280;48756;41.374;2.066;2022-07-05T07:25:19;101217.66;;;27.93;52.32
56042;BME280;48756;41.374;2.066;2022-07-05T07:27:50;101210.69;;;28.15;51.06
56042;BME280;48756;41.374;2.066;2022-07-05T07:30:17;101204.09;;;27.84;49.71
56042;BME280;48756;41.374;2.066;2022-07-05T07:32:42;101213.31;;;27.80;50.24
56042;BME280;48756;41.374;2.066;2022-07-05T07:35:09;101197.44;;;27.89;50.16
56042;BME280;48756;41.374;2.066;2022-07-05T07:37:35;101209.50;;;27.71;49.58
56042;BME280;48756;41.374;2.066;2022-07-05T07:40:01;101219.59;;;28.15;48.67
56042;BME280;48756;41.374;2.066;2022-07-05T07:42:26;101216.56;;;28.20;48.40
56042;BME280;48756;41.374;2.066;2022-07-05T07:44:52;101211.72;;;28.01;48.95
56042;BME280;48756;41.374;2.066;2022-07-05T07:47:18;101206.97;;;28.28;47.82
56042;BME280;48756;41.374;2.066;2022-07-05T07:49:43;101202.72;;;28.26;47.88
56042;BME280;48756;41.374;2.066;2022-07-05T07:52:08;101194.97;;;28.45;47.85
56042;BME280;48756;41.374;2.066;2022-07-05T07:54:34;101194.66;;;28.61;47.11
56042;BME280;48756;41.374;2.066;2022-07-05T07:56:59;101186.88;;;28.80;46.65
56042;BME280;48756;41.374;2.066;2022-07-05T07:59:26;101197.13;;;28.75;46.40
56042;BME280;48756;41.374;2.066;2022-07-05T08:01:52;101187.00;;;28.79;46.08
56042;BME280;48756;41.374;2.066;2022-07-05T08:04:17;101183.97;;;29.06;45.05
56042;BME280;48756;41.374;2.066;2022-07-05T08:06:43;101172.75;;;29.23;44.55
56042;BME280;48756;41.374;2.066;2022-07-05T08:09:08;101174.47;;;29.24;44.46
56042;BME280;48756;41.374;2.066;2022-07-05T08:11:33;101169.94;;;28.91;44.23
56042;BME280;48756;41.374;2.066;2022-07-05T08:13:58;101171.66;;;29.03;43.25
56042;BME280;48756;41.374;2.066;2022-07-05T08:16:24;101173.09;;;29.18;43.36
56042;BME280;48756;41.374;2.066;2022-07-05T08:18:49;101164.38;;;29.60;43.40
56042;BME280;48756;41.374;2.066;2022-07-05T08:21:33;101168.91;;;29.70;42.06
56042;BME280;48756;41.374;2.066;2022-07-05T08:24:08;101168.50;;;29.75;41.76
56042;BME280;48756;41.374;2.066;2022-07-05T08:26:34;101160.63;;;29.94;41.60
56042;BME280;48756;41.374;2.066;2022-07-05T08:29:00;101154.81;;;30.10;41.62
56042;BME280;48756;41.374;2.066;2022-07-05T08:31:27;101158.63;;;30.28;41.56
56042;BME280;48756;41.374;2.066;2022-07-05T08:33:53;101156.06;;;30.27;41.05
56042;BME280;48756;41.374;2.066;2022-07-05T08:36:18;101159.19;;;30.53;41.06
56042;BME280;48756;41.374;2.066;2022-07-05T08:38:43;101153.88;;;30.83;39.63
56042;BME280;48756;41.374;2.066;2022-07-05T08:41:09;101154.88;;;31.22;40.73
56042;BME280;48756;41.374;2.066;2022-07-05T08:43:35;101153.25;;;31.60;38.94
56042;BME280;48756;41.374;2.066;2022-07-05T08:46:01;101149.06;;;31.96;38.02
56042;BME280;48756;41.374;2.066;2022-07-05T08:48:27;101154.44;;;31.86;39.06
56042;BME280;48756;41.374;2.066;2022-07-05T08:50:52;101150.47;;;32.00;38.58
56042;BME280;48756;41.374;2.066;2022-07-05T08:53:19;101145.59;;;32.13;39.13
56042;BME280;48756;41.374;2.066;2022-07-05T08:55:45;101147.81;;;32.56;37.56
56042;BME280;48756;41.374;2.066;2022-07-05T08:58:10;101158.31;;;33.06;36.64
56042;BME280;48756;41.374;2.066;2022-07-05T09:00:36;101162.91;;;32.49;38.47
56042;BME280;48756;41.374;2.066;2022-07-05T09:03:02;101155.56;;;32.88;36.51
56042;BME280;48756;41.374;2.066;2022-07-05T09:05:27;101164.50;;;32.89;36.93
56042;BME280;48756;41.374;2.066;2022-07-05T09:08:00;101153.56;;;33.18;36.58
56042;BME280;48756;41.374;2.066;2022-07-05T09:10:26;101156.41;;;32.89;36.72
56042;BME280;48756;41.374;2.066;2022-07-05T09:12:52;101156.63;;;33.33;36.71
56042;BME280;48756;41.374;2.066;2022-07-05T09:15:17;101152.50;;;33.56;35.25
56042;BME280;48756;41.374;2.066;2022-07-05T09:17:43;101148.81;;;33.30;35.76
56042;BME280;48756;41.374;2.066;2022-07-05T09:20:12;101140.84;;;33.56;35.25
56042;BME280;48756;41.374;2.066;2022-07-05T09:22:48;101141.75;;;33.46;35.88
56042;BME280;48756;41.374;2.066;2022-07-05T09:25:18;101142.31;;;34.29;34.74
56042;BME280;48756;41.374;2.066;2022-07-05T09:28:05;101144.53;;;34.08;34.43
56042;BME280;48756;41.374;2.066;2022-07-05T09:35:36;101137.59;;;34.83;33.04
56042;BME280;48756;41.374;2.066;2022-07-05T09:38:02;101143.38;;;34.10;34.82
56042;BME280;48756;41.374;2.066;2022-07-05T09:40:29;101142.19;;;34.13;34.76
56042;BME280;48756;41.374;2.066;2022-07-05T09:43:09;101146.19;;;34.01;34.99
56042;BME280;48756;41.374;2.066;2022-07-05T09:45:35;101142.41;;;34.89;33.80
56042;BME280;48756;41.374;2.066;2022-07-05T09:48:00;101139.44;;;35.17;32.64
56042;BME280;48756;41.374;2.066;2022-07-05T09:50:35;101142.69;;;34.52;33.75
56042;BME280;48756;41.374;2.066;2022-07-05T09:53:01;101143.97;;;34.22;34.73
56042;BME280;48756;41.374;2.066;2022-07-05T09:55:26;101149.88;;;34.95;32.80
56042;BME280;48756;41.374;2.066;2022-07-05T09:57:52;101149.22;;;34.76;32.55
56042;BME280;48756;41.374;2.066;2022-07-05T10:00:19;101158.50;;;33.68;33.98
56042;BME280;48756;41.374;2.066;2022-07-05T10:02:46;101149.59;;;34.29;33.50
56042;BME280;48756;41.374;2.066;2022-07-05T10:05:19;101162.66;;;34.85;33.12
56042;BME280;48756;41.374;2.066;2022-07-05T10:07:52;101163.22;;;35.31;31.95
56042;BME280;48756;41.374;2.066;2022-07-05T10:10:21;101161.88;;;34.67;32.83
56042;BME280;48756;41.374;2.066;2022-07-05T10:12:48;101164.97;;;35.06;32.17
56042;BME280;48756;41.374;2.066;2022-07-05T10:15:15;101166.47;;;35.35;31.49
56042;BME280;48756;41.374;2.066;2022-07-05T10:17:44;101163.94;;;35.07;32.56
56042;BME280;48756;41.374;2.066;2022-07-05T10:22:38;101178.78;;;34.87;31.38
56042;BME280;48756;41.374;2.066;2022-07-05T10:25:04;101173.84;;;35.24;31.74
56042;BME280;48756;41.374;2.066;2022-07-05T10:27:30;101179.91;;;35.60;30.95
56042;BME280;48756;41.374;2.066;2022-07-05T10:29:56;101184.44;;;35.36;31.87
56042;BME280;48756;41.374;2.066;2022-07-05T10:32:23;101178.28;;;36.00;30.54
56042;BME280;48756;41.374;2.066;2022-07-05T10:34:49;101194.41;;;35.01;33.31
56042;BME280;48756;41.374;2.066;2022-07-05T10:37:16;101196.19;;;35.18;32.74
56042;BME280;48756;41.374;2.066;2022-07-05T10:39:41;101190.56;;;35.54;31.76
56042;BME280;48756;41.374;2.066;2022-07-05T10:42:07;101191.25;;;35.72;31.78
56042;BME280;48756;41.374;2.066;2022-07-05T10:44:33;101190.69;;;35.44;31.79
56042;BME280;48756;41.374;2.066;2022-07-05T10:47:08;101186.94;;;34.69;32.45
56042;BME280;48756;41.374;2.066;2022-07-05T10:49:38;101176.19;;;34.59;32.87
56042;BME280;48756;41.374;2.066;2022-07-05T10:52:04;101183.34;;;34.86;32.69
56042;BME280;48756;41.374;2.066;2022-07-05T10:54:30;101182.38;;;35.04;32.19
56042;BME280;48756;41.374;2.066;2022-07-05T11:02:24;101176.00;;;35.63;31.33
56042;BME280;48756;41.374;2.066;2022-07-05T11:04:54;101183.59;;;35.43;31.29
56042;BME280;48756;41.374;2.066;2022-07-05T11:07:56;101179.59;;;35.29;31.83
56042;BME280;48756;41.374;2.066;2022-07-05T11:10:06;101167.91;;;34.35;33.26
56042;BME280;48756;41.374;2.066;2022-07-05T11:12:35;101172.41;;;35.46;31.38
56042;BME280;48756;41.374;2.066;2022-07-05T11:15:05;101171.91;;;35.43;31.99
56042;BME280;48756;41.374;2.066;2022-07-05T11:17:35;101172.13;;;35.74;30.68
56042;BME280;48756;41.374;2.066;2022-07-05T11:20:06;101169.78;;;34.60;32.52
56042;BME280;48756;41.374;2.066;2022-07-05T11:22:32;101183.31;;;35.20;31.83
56042;BME280;48756;41.374;2.066;2022-07-05T11:24:58;101179.25;;;35.16;31.96
56042;BME280;48756;41.374;2.066;2022-07-05T11:27:25;101173.94;;;35.07;31.59
56042;BME280;48756;41.374;2.066;2022-07-05T11:32:16;101179.50;;;34.71;32.13
56042;BME280;48756;41.374;2.066;2022-07-05T11:34:43;101184.00;;;35.22;31.94
56042;BME280;48756;41.374;2.066;2022-07-05T11:39:41;101186.00;;;35.71;31.33
56042;BME280;48756;41.374;2.066;2022-07-05T11:42:08;101181.94;;;35.58;31.42
56042;BME280;48756;41.374;2.066;2022-07-05T11:44:33;101183.72;;;34.65;33.47
56042;BME280;48756;41.374;2.066;2022-07-05T11:46:59;101190.06;;;35.67;31.15
56042;BME280;48756;41.374;2.066;2022-07-05T11:49:24;101191.25;;;35.72;31.25
56042;BME280;48756;41.374;2.066;2022-07-05T11:51:58;101194.38;;;35.85;30.68
56042;BME280;48756;41.374;2.066;2022-07-05T11:54:24;101195.09;;;34.77;32.87
56042;BME280;48756;41.374;2.066;2022-07-05T11:56:50;101199.22;;;35.23;32.11
56042;BME280;48756;41.374;2.066;2022-07-05T11:59:16;101197.72;;;33.99;34.00
56042;BME280;48756;41.374;2.066;2022-07-05T12:01:45;101196.34;;;35.25;32.21
56042;BME280;48756;41.374;2.066;2022-07-05T12:04:10;101188.84;;;34.77;33.02
56042;BME280;48756;41.374;2.066;2022-07-05T12:06:42;101194.78;;;34.54;33.88
56042;BME280;48756;41.374;2.066;2022-07-05T12:09:07;101199.91;;;35.25;31.83
56042;BME280;48756;41.374;2.066;2022-07-05T12:11:32;101198.31;;;33.93;33.75
56042;BME280;48756;41.374;2.066;2022-07-05T12:14:20;101203.78;;;34.37;34.15
56042;BME280;48756;41.374;2.066;2022-07-05T12:16:47;101198.41;;;34.63;32.98
56042;BME280;48756;41.374;2.066;2022-07-05T12:19:12;101205.84;;;35.21;32.16
56042;BME280;48756;41.374;2.066;2022-07-05T12:21:54;101204.97;;;34.60;33.25
56042;BME280;48756;41.374;2.066;2022-07-05T12:24:20;101202.50;;;34.67;33.06
56042;BME280;48756;41.374;2.066;2022-07-05T12:26:45;101211.03;;;35.48;31.99
56042;BME280;48756;41.374;2.066;2022-07-05T12:29:11;101207.00;;;35.18;31.73
56042;BME280;48756;41.374;2.066;2022-07-05T12:31:37;101208.59;;;34.43;33.43
56042;BME280;48756;41.374;2.066;2022-07-05T12:34:17;101204.88;;;34.70;32.36
56042;BME280;48756;41.374;2.066;2022-07-05T12:36:43;101216.97;;;33.96;34.65
56042;BME280;48756;41.374;2.066;2022-07-05T12:39:08;101211.59;;;35.60;31.50
56042;BME280;48756;41.374;2.066;2022-07-05T12:41:33;101211.13;;;35.81;31.45
56042;BME280;48756;41.374;2.066;2022-07-05T12:43:59;101215.13;;;35.18;32.01
56042;BME280;48756;41.374;2.066;2022-07-05T12:46:35;101202.69;;;35.84;30.95
56042;BME280;48756;41.374;2.066;2022-07-05T12:49:02;101209.97;;;35.92;30.82
56042;BME280;48756;41.374;2.066;2022-07-05T12:51:31;101211.53;;;36.27;30.06
56042;BME280;48756;41.374;2.066;2022-07-05T12:53:57;101213.06;;;35.46;31.45
56042;BME280;48756;41.374;2.066;2022-07-05T12:56:40;101217.19;;;35.67;31.09
56042;BME280;48756;41.374;2.066;2022-07-05T12:59:29;101217.69;;;35.70;30.55
56042;BME280;48756;41.374;2.066;2022-07-05T13:01:54;101210.31;;;35.97;30.97
56042;BME280;48756;41.374;2.066;2022-07-05T13:04:20;101215.00;;;35.70;30.68
56042;BME280;48756;41.374;2.066;2022-07-05T13:09:16;101232.34;;;35.35;31.71